sensor_id;sensor_type;location;lat;lon;timestamp;pressure;altitude;pressure_sealevel;temperature;humidity
9141;BME280;46330;50.822;7.126;2022-12-11T00:01:59;100519.25;;;-0.47;97.81
9141;BME280;46330;50.822;7.126;2022-12-11T00:04:26;100518.38;;;-0.46;97.12
9141;BME280;46330;50.822;7.126;2022-12-11T00:06:54;100516.63;;;-0.49;98.30
9141;BME280;46330;50.822;7.126;2022-12-11T00:09:24;100525.28;;;-0.45;98.43
9141;BME280;46330;50.822;7.126;2022-12-11T00:11:51;100532.19;;;-0.43;99.02
9141;BME280;46330;50.822;7.126;2022-12-11T00:14:19;100519.38;;;-0.41;99.70
9141;BME280;46330;50.822;7.126;2022-12-11T00:16:47;100510.06;;;-0.38;100.00
9141;BME280;46330;50.822;7.126;2022-12-11T00:19:15;100513.56;;;-0.34;100.00
9141;BME280;46330;50.822;7.126;2022-12-11T00:21:43;100514.38;;;-0.35;99.80
9141;BME280;46330;50.822;7.126;2022-12-11T00:24:11;100510.13;;;-0.33;99.99
9141;BME280;46330;50.822;7.126;2022-12-11T00:26:40;100513.69;;;-0.28;99.98
9141;BME280;46330;50.822;7.126;2022-12-11T00:29:09;100508.50;;;-0.30;100.00
9141;BME280;46330;50.822;7.126;2022-12-11T00:31:40;100505.91;;;-0.31;99.49
9141;BME280;46330;50.822;7.126;2022-12-11T00:34:08;100503.28;;;-0.33;99.54
9141;BME280;46330;50.822;7.126;2022-12-11T00:36:37;100512.75;;;-0.32;98.90
9141;BME280;46330;50.822;7.126;2022-12-11T00:39:06;100511.00;;;-0.34;98.61
9141;BME280;46330;50.822;7.126;2022-12-11T00:41:33;100511.75;;;-0.38;98.35
9141;BME280;46330;50.822;7.126;2022-12-11T00:44:03;100511.00;;;-0.34;99.20
9141;BME280;46330;50.822;7.126;2022-12-11T00:46:31;100500.66;;;-0.36;98.71
9141;BME280;46330;50.822;7.126;2022-12-11T00:48:59;100499.84;;;-0.35;98.65
9141;BME280;46330;50.822;7.126;2022-12-11T00:51:26;100495.66;;;-0.30;99.01
9141;BME280;46330;50.822;7.126;2022-12-11T00:53:54;100508.56;;;-0.28;99.20
9141;BME280;46330;50.822;7.126;2022-12-11T00:56:22;100509.38;;;-0.29;98.51
9141;BME280;46330;50.822;7.126;2022-12-11T00:58:50;100507.69;;;-0.29;98.86
9141;BME280;46330;50.822;7.126;2022-12-11T01:01:21;100509.38;;;-0.29;98.42
9141;BME280;46330;50.822;7.126;2022-12-11T01:03:51;100506.06;;;-0.24;99.55
9141;BME280;46330;50.822;7.126;2022-12-11T01:06:20;100508.56;;;-0.28;99.47
9141;BME280;46330;50.822;7.126;2022-12-11T01:08:49;100511.13;;;-0.27;99.36
9141;BME280;46330;50.822;7.126;2022-12-11T01:11:39;100506.88;;;-0.26;99.70
9141;BME280;46330;50.822;7.126;2022-12-11T01:14:06;100504.38;;;-0.23;99.72
9141;BME280;46330;50.822;7.126;2022-12-11T01:16:36;100512.06;;;-0.23;100.00
9141;BME280;46330;50.822;7.126;2022-12-11T01:19:04;100501.03;;;-0.19;100.00
9141;BME280;46330;50.822;7.126;2022-12-11T01:21:32;100504.38;;;-0.22;100.00
9141;BME280;46330;50.822;7.126;2022-12-11T01:23:59;100502.59;;;-0.26;100.00
9141;BME280;46330;50.822;7.126;2022-12-11T01:26:27;100510.41;;;-0.21;100.00
9141;BME280;46330;50.822;7.126;2022-12-11T01:28:56;100509.44;;;-0.26;100.00
9141;BME280;46330;50.822;7.126;2022-12-11T01:31:24;100505.13;;;-0.29;100.00
9141;BME280;46330;50.822;7.126;2022-12-11T01:33:54;100496.63;;;-0.25;100.00
9141;BME280;46330;50.822;7.126;2022-12-11T01:36:22;100495.84;;;-0.22;100.00
9141;BME280;46330;50.822;7.126;2022-12-11T01:38:50;100495.03;;;-0.20;100.00
9141;BME280;46330;50.822;7.126;2022-12-11T01:41:20;100492.53;;;-0.15;100.00
9141;BME280;46330;50.822;7.126;2022-12-11T01:44:02;100490.88;;;-0.13;100.00
9141;BME280;46330;50.822;7.126;2022-12-11T01:46:31;100488.31;;;-0.13;100.00
9141;BME280;46330;50.822;7.126;2022-12-11T01:49:03;100493.47;;;-0.12;100.00
9141;BME280;46330;50.822;7.126;2022-12-11T01:51:35;100488.31;;;-0.13;100.00
9141;BME280;46330;50.822;7.126;2022-12-11T01:54:08;100482.31;;;-0.14;100.00
9141;BME280;46330;50.822;7.126;2022-12-11T01:56:40;100493.41;;;-0.15;100.00
9141;BME280;46330;50.822;7.126;2022-12-11T01:59:11;100484.88;;;-0.14;100.00
9141;BME280;46330;50.822;7.126;2022-12-11T02:01:45;100484.94;;;-0.11;100.00
9141;BME280;46330;50.822;7.126;2022-12-11T02:04:17;100485.75;;;-0.12;100.00
9141;BME280;46330;50.822;7.126;2022-12-11T02:06:48;100486.56;;;-0.16;100.00
9141;BME280;46330;50.822;7.126;2022-12-11T02:09:19;100479.81;;;-0.11;100.00
9141;BME280;46330;50.822;7.126;2022-12-11T02:11:54;100483.19;;;-0.13;100.00
9141;BME280;46330;50.822;7.126;2022-12-11T02:14:27;100489.28;;;-0.08;100.00
9141;BME280;46330;50.822;7.126;2022-12-11T02:17:02;100481.50;;;-0.11;100.00
9141;BME280;46330;50.822;7.126;2022-12-11T02:19:44;100475.53;;;-0.09;100.00
9141;BME280;46330;50.822;7.126;2022-12-11T02:22:22;100474.66;;;-0.11;100.00
9141;BME280;46330;50.822;7.126;2022-12-11T02:25:04;100473.72;;;-0.16;100.00
9141;BME280;46330;50.822;7.126;2022-12-11T02:27:40;100477.03;;;-0.20;100.00
9141;BME280;46330;50.822;7.126;2022-12-11T02:30:12;100470.97;;;-0.22;100.00
9141;BME280;46330;50.822;7.126;2022-12-11T02:32:44;100473.56;;;-0.22;100.00
9141;BME280;46330;50.822;7.126;2022-12-11T02:35:17;100464.94;;;-0.24;100.00
9141;BME280;46330;50.822;7.126;2022-12-11T02:37:50;100471.59;;;-0.33;100.00
9141;BME280;46330;50.822;7.126;2022-12-11T02:40:21;100471.59;;;-0.33;100.00
9141;BME280;46330;50.822;7.126;2022-12-11T02:42:53;100472.34;;;-0.37;100.00
9141;BME280;46330;50.822;7.126;2022-12-11T02:45:24;100466.25;;;-0.42;100.00
9141;BME280;46330;50.822;7.126;2022-12-11T02:47:55;100476.72;;;-0.35;100.00
9141;BME280;46330;50.822;7.126;2022-12-11T02:50:25;100471.41;;;-0.42;100.00
9141;BME280;46330;50.822;7.126;2022-12-11T02:52:54;100473.16;;;-0.40;100.00
9141;BME280;46330;50.822;7.126;2022-12-11T02:55:25;100472.28;;;-0.40;100.00
9141;BME280;46330;50.822;7.126;2022-12-11T02:57:59;100467.16;;;-0.40;100.00
9141;BME280;46330;50.822;7.126;2022-12-11T03:00:30;100463.88;;;-0.33;100.00
9141;BME280;46330;50.822;7.126;2022-12-11T03:02:58;100459.75;;;-0.27;100.00
9141;BME280;46330;50.822;7.126;2022-12-11T03:05:26;100464.81;;;-0.31;100.00
9141;BME280;46330;50.822;7.126;2022-12-11T03:07:54;100460.38;;;-0.37;100.00
9141;BME280;46330;50.822;7.126;2022-12-11T03:10:22;100461.31;;;-0.33;100.00
9141;BME280;46330;50.822;7.126;2022-12-11T03:12:52;100464.75;;;-0.34;100.00
9141;BME280;46330;50.822;7.126;2022-12-11T03:15:27;100471.25;;;-0.48;100.00
9141;BME280;46330;50.822;7.126;2022-12-11T03:18:04;100461.94;;;-0.45;100.00
9141;BME280;46330;50.822;7.126;2022-12-11T03:20:37;100460.13;;;-0.49;100.00
9141;BME280;46330;50.822;7.126;2022-12-11T03:23:12;100468.69;;;-0.50;100.00
9141;BME280;46330;50.822;7.126;2022-12-11T03:25:47;100462.66;;;-0.50;100.00
9141;BME280;46330;50.822;7.126;2022-12-11T03:28:22;100462.81;;;-0.44;100.00
9141;BME280;46330;50.822;7.126;2022-12-11T03:30:52;100455.91;;;-0.45;100.00
9141;BME280;46330;50.822;7.126;2022-12-11T03:33:25;100464.63;;;-0.39;100.00
9141;BME280;46330;50.822;7.126;2022-12-11T03:36:00;100461.19;;;-0.39;100.00
9141;BME280;46330;50.822;7.126;2022-12-11T03:38:34;100462.00;;;-0.42;100.00
9141;BME280;46330;50.822;7.126;2022-12-11T03:41:06;100460.44;;;-0.35;100.00
9141;BME280;46330;50.822;7.126;2022-12-11T03:43:35;100468.03;;;-0.40;100.00
9141;BME280;46330;50.822;7.126;2022-12-11T03:46:04;100480.59;;;-0.53;100.00
9141;BME280;46330;50.822;7.126;2022-12-11T03:48:36;100471.25;;;-0.48;100.00
9141;BME280;46330;50.822;7.126;2022-12-11T03:51:06;100471.38;;;-0.44;100.00
9141;BME280;46330;50.822;7.126;2022-12-11T03:53:36;100470.66;;;-0.37;100.00
9141;BME280;46330;50.822;7.126;2022-12-11T03:56:07;100462.94;;;-0.38;100.00
9141;BME280;46330;50.822;7.126;2022-12-11T03:58:36;100469.88;;;-0.34;100.00
9141;BME280;46330;50.822;7.126;2022-12-11T04:01:07;100472.50;;;-0.31;100.00
9141;BME280;46330;50.822;7.126;2022-12-11T04:03:37;100468.09;;;-0.37;100.00
9141;BME280;46330;50.822;7.126;2022-12-11T04:06:06;100461.88;;;-0.48;100.00
9141;BME280;46330;50.822;7.126;2022-12-11T04:08:34;100461.03;;;-0.47;100.00
9141;BME280;46330;50.822;7.126;2022-12-11T04:11:03;100456.06;;;-0.39;100.00
9141;BME280;46330;50.822;7.126;2022-12-11T04:13:48;100448.19;;;-0.47;100.00
9141;BME280;46330;50.822;7.126;2022-12-11T04:16:37;100450.84;;;-0.44;100.00
9141;BME280;46330;50.822;7.126;2022-12-11T04:19:05;100449.09;;;-0.43;100.00
9141;BME280;46330;50.822;7.126;2022-12-11T04:21:50;100446.59;;;-0.40;100.00
9141;BME280;46330;50.822;7.126;2022-12-11T04:24:35;100451.72;;;-0.42;100.00
9141;BME280;46330;50.822;7.126;2022-12-11T04:27:03;100452.66;;;-0.38;100.00
9141;BME280;46330;50.822;7.126;2022-12-11T04:29:31;100445.81;;;-0.38;100.00
9141;BME280;46330;50.822;7.126;2022-12-11T04:31:59;100450.91;;;-0.39;100.00
9141;BME280;46330;50.822;7.126;2022-12-11T04:34:28;100449.28;;;-0.36;100.00
9141;BME280;46330;50.822;7.126;2022-12-11T04:36:57;100451.97;;;-0.31;100.00
9141;BME280;46330;50.822;7.126;2022-12-11T04:39:24;100450.09;;;-0.37;100.00
9141;BME280;46330;50.822;7.126;2022-12-11T04:41:52;100445.97;;;-0.30;100.00
9141;BME280;46330;50.822;7.126;2022-12-11T04:44:20;100446.03;;;-0.27;100.00
9141;BME280;46330;50.822;7.126;2022-12-11T04:46:47;100448.59;;;-0.29;100.00
9141;BME280;46330;50.822;7.126;2022-12-11T04:49:15;100447.78;;;-0.26;100.00
9141;BME280;46330;50.822;7.126;2022-12-11T04:51:45;100440.16;;;-0.22;100.00
9141;BME280;46330;50.822;7.126;2022-12-11T04:54:12;100450.34;;;-0.25;100.00
9141;BME280;46330;50.822;7.126;2022-12-11T04:56:40;100450.41;;;-0.23;100.00
9141;BME280;46330;50.822;7.126;2022-12-11T04:59:08;100447.09;;;-0.18;100.00
9141;BME280;46330;50.822;7.126;2022-12-11T05:01:36;100440.31;;;-0.14;100.00
9141;BME280;46330;50.822;7.126;2022-12-11T05:04:03;100432.66;;;-0.11;100.00
9141;BME280;46330;50.822;7.126;2022-12-11T05:06:31;100442.06;;;-0.12;100.00
9141;BME280;46330;50.822;7.126;2022-12-11T05:09:00;100443.00;;;-0.08;100.00
9141;BME280;46330;50.822;7.126;2022-12-11T05:11:28;100443.94;;;-0.05;100.00
9141;BME280;46330;50.822;7.126;2022-12-11T05:13:56;100440.44;;;-0.08;100.00
9141;BME280;46330;50.822;7.126;2022-12-11T05:16:24;100429.22;;;-0.13;100.00
9141;BME280;46330;50.822;7.126;2022-12-11T05:18:52;100424.94;;;-0.11;100.00
9141;BME280;46330;50.822;7.126;2022-12-11T05:21:19;100422.38;;;-0.11;100.00
9141;BME280;46330;50.822;7.126;2022-12-11T05:23:47;100418.00;;;-0.17;100.00
9141;BME280;46330;50.822;7.126;2022-12-11T05:26:17;100418.06;;;-0.12;100.00
9141;BME280;46330;50.822;7.126;2022-12-11T05:28:51;100413.03;;;-0.08;100.00
9141;BME280;46330;50.822;7.126;2022-12-11T05:31:20;100419.03;;;-0.07;100.00
9141;BME280;46330;50.822;7.126;2022-12-11T05:33:49;100415.50;;;-0.12;100.00
9141;BME280;46330;50.822;7.126;2022-12-11T05:36:19;100415.53;;;-0.11;100.00
9141;BME280;46330;50.822;7.126;2022-12-11T05:38:47;100413.03;;;-0.08;100.00
9141;BME280;46330;50.822;7.126;2022-12-11T05:41:18;100413.09;;;-0.05;100.00
9141;BME280;46330;50.822;7.126;2022-12-11T05:43:47;100401.00;;;-0.09;100.00
9141;BME280;46330;50.822;7.126;2022-12-11T05:46:16;100406.25;;;-0.04;100.00
9141;BME280;46330;50.822;7.126;2022-12-11T05:48:46;100405.41;;;-0.03;100.00
9141;BME280;46330;50.822;7.126;2022-12-11T05:51:16;100411.28;;;-0.09;100.00
9141;BME280;46330;50.822;7.126;2022-12-11T05:53:47;100406.88;;;-0.16;100.00
9141;BME280;46330;50.822;7.126;2022-12-11T05:56:20;100409.47;;;-0.14;100.00
9141;BME280;46330;50.822;7.126;2022-12-11T05:58:48;100411.28;;;-0.10;100.00
9141;BME280;46330;50.822;7.126;2022-12-11T06:01:18;100413.84;;;-0.10;100.00
9141;BME280;46330;50.822;7.126;2022-12-11T06:03:46;100416.13;;;-0.24;100.00
9141;BME280;46330;50.822;7.126;2022-12-11T06:06:14;100419.69;;;-0.17;100.00
9141;BME280;46330;50.822;7.126;2022-12-11T06:08:42;100418.81;;;-0.18;100.00
9141;BME280;46330;50.822;7.126;2022-12-11T06:11:11;100429.09;;;-0.19;100.00
9141;BME280;46330;50.822;7.126;2022-12-11T06:13:40;100418.00;;;-0.17;100.00
9141;BME280;46330;50.822;7.126;2022-12-11T06:16:08;100413.75;;;-0.15;100.00
9141;BME280;46330;50.822;7.126;2022-12-11T06:18:38;100417.22;;;-0.13;100.00
9141;BME280;46330;50.822;7.126;2022-12-11T06:21:13;100418.13;;;-0.09;100.00
9141;BME280;46330;50.822;7.126;2022-12-11T06:23:42;100413.09;;;-0.05;100.00
9141;BME280;46330;50.822;7.126;2022-12-11T06:26:10;100408.72;;;-0.10;100.00
9141;BME280;46330;50.822;7.126;2022-12-11T06:28:39;100410.41;;;-0.09;100.00
9141;BME280;46330;50.822;7.126;2022-12-11T06:31:08;100413.09;;;-0.03;100.00
9141;BME280;46330;50.822;7.126;2022-12-11T06:33:36;100406.25;;;-0.03;100.00
9141;BME280;46330;50.822;7.126;2022-12-11T06:36:06;100420.06;;;0.01;100.00
9141;BME280;46330;50.822;7.126;2022-12-11T06:38:34;100407.84;;;-0.11;100.00
9141;BME280;46330;50.822;7.126;2022-12-11T06:41:04;100406.09;;;-0.12;100.00
9141;BME280;46330;50.822;7.126;2022-12-11T06:43:33;100407.84;;;-0.09;100.00
9141;BME280;46330;50.822;7.126;2022-12-11T06:46:02;100405.22;;;-0.12;100.00
9141;BME280;46330;50.822;7.126;2022-12-11T06:48:32;100407.03;;;-0.08;100.00
9141;BME280;46330;50.822;7.126;2022-12-11T06:51:04;100404.44;;;-0.10;100.00
9141;BME280;46330;50.822;7.126;2022-12-11T06:53:33;100401.75;;;-0.16;100.00
9141;BME280;46330;50.822;7.126;2022-12-11T06:56:02;100406.13;;;-0.10;100.00
9141;BME280;46330;50.822;7.126;2022-12-11T06:58:32;100410.22;;;-0.20;100.00
9141;BME280;46330;50.822;7.126;2022-12-11T07:01:00;100412.03;;;-0.16;100.00
9141;BME280;46330;50.822;7.126;2022-12-11T07:03:28;100413.78;;;-0.13;100.00
9141;BME280;46330;50.822;7.126;2022-12-11T07:06:00;100415.50;;;-0.12;100.00
9141;BME280;46330;50.822;7.126;2022-12-11T07:08:29;100418.94;;;-0.13;100.00
9141;BME280;46330;50.822;7.126;2022-12-11T07:11:02;100418.00;;;-0.17;100.00
9141;BME280;46330;50.822;7.126;2022-12-11T07:13:29;100422.38;;;-0.13;100.00
9141;BME280;46330;50.822;7.126;2022-12-11T07:15:57;100425.00;;;-0.10;100.00
9141;BME280;46330;50.822;7.126;2022-12-11T07:18:26;100424.13;;;-0.09;100.00
9141;BME280;46330;50.822;7.126;2022-12-11T07:20:56;100425.97;;;-0.03;100.00
9141;BME280;46330;50.822;7.126;2022-12-11T07:23:26;100432.66;;;-0.11;100.00
9141;BME280;46330;50.822;7.126;2022-12-11T07:25:54;100428.47;;;-0.08;100.00
9141;BME280;46330;50.822;7.126;2022-12-11T07:28:23;100425.81;;;-0.11;100.00
9141;BME280;46330;50.822;7.126;2022-12-11T07:30:51;100432.66;;;-0.11;100.00
9141;BME280;46330;50.822;7.126;2022-12-11T07:33:19;100423.28;;;-0.09;100.00
9141;BME280;46330;50.822;7.126;2022-12-11T07:35:47;100430.09;;;-0.13;100.00
9141;BME280;46330;50.822;7.126;2022-12-11T07:38:15;100425.78;;;-0.12;100.00
9141;BME280;46330;50.822;7.126;2022-12-11T07:40:45;100416.41;;;-0.10;100.00
9141;BME280;46330;50.822;7.126;2022-12-11T07:43:12;100425.00;;;-0.10;100.00
9141;BME280;46330;50.822;7.126;2022-12-11T07:45:40;100419.94;;;-0.05;100.00
9141;BME280;46330;50.822;7.126;2022-12-11T07:48:08;100425.81;;;-0.11;100.00
9141;BME280;46330;50.822;7.126;2022-12-11T07:50:36;100420.75;;;-0.06;100.00
9141;BME280;46330;50.822;7.126;2022-12-11T07:53:05;100420.75;;;-0.06;100.00
9141;BME280;46330;50.822;7.126;2022-12-11T07:55:33;100419.03;;;-0.07;100.00
9141;BME280;46330;50.822;7.126;2022-12-11T07:58:02;100426.72;;;-0.09;100.00
9141;BME280;46330;50.822;7.126;2022-12-11T08:00:30;100435.94;;;-0.18;100.00
9141;BME280;46330;50.822;7.126;2022-12-11T08:02:58;100429.16;;;-0.16;100.00
9141;BME280;46330;50.822;7.126;2022-12-11T08:05:26;100421.28;;;-0.24;100.00
9141;BME280;46330;50.822;7.126;2022-12-11T08:07:53;100430.78;;;-0.20;100.00
9141;BME280;46330;50.822;7.126;2022-12-11T08:10:22;100426.41;;;-0.24;100.00
9141;BME280;46330;50.822;7.126;2022-12-11T08:12:49;100417.13;;;-0.17;100.00
9141;BME280;46330;50.822;7.126;2022-12-11T08:15:19;100430.03;;;-0.16;100.00
9141;BME280;46330;50.822;7.126;2022-12-11T08:17:47;100419.75;;;-0.16;100.00
9141;BME280;46330;50.822;7.126;2022-12-11T08:20:15;100420.50;;;-0.20;100.00
9141;BME280;46330;50.822;7.126;2022-12-11T08:22:43;100426.41;;;-0.25;100.00
9141;BME280;46330;50.822;7.126;2022-12-11T08:25:11;100428.16;;;-0.21;100.00
9141;BME280;46330;50.822;7.126;2022-12-11T08:27:39;100425.72;;;-0.17;100.00
9141;BME280;46330;50.822;7.126;2022-12-11T08:30:08;100426.47;;;-0.21;100.00
9141;BME280;46330;50.822;7.126;2022-12-11T08:32:37;100413.53;;;-0.25;100.00
9141;BME280;46330;50.822;7.126;2022-12-11T08:35:06;100416.19;;;-0.21;100.00
9141;BME280;46330;50.822;7.126;2022-12-11T08:37:34;100401.66;;;-0.19;100.00
9141;BME280;46330;50.822;7.126;2022-12-11T08:40:02;100405.22;;;-0.14;100.00
9141;BME280;46330;50.822;7.126;2022-12-11T08:42:30;100419.84;;;-0.10;100.00
9141;BME280;46330;50.822;7.126;2022-12-11T08:44:58;100414.66;;;-0.13;100.00
9141;BME280;46330;50.822;7.126;2022-12-11T08:47:26;100417.41;;;-0.04;100.00
9141;BME280;46330;50.822;7.126;2022-12-11T08:49:55;100412.16;;;-0.08;100.00
9141;BME280;46330;50.822;7.126;2022-12-11T08:52:23;100409.66;;;-0.05;100.00
9141;BME280;46330;50.822;7.126;2022-12-11T08:54:51;100416.50;;;-0.06;100.00
9141;BME280;46330;50.822;7.126;2022-12-11T08:57:18;100418.34;;;0.00;100.00
9141;BME280;46330;50.822;7.126;2022-12-11T08:59:46;100419.28;;;0.07;100.00
9141;BME280;46330;50.822;7.126;2022-12-11T09:02:14;100416.50;;;-0.06;100.00
9141;BME280;46330;50.822;7.126;2022-12-11T09:04:42;100427.00;;;0.05;100.00
9141;BME280;46330;50.822;7.126;2022-12-11T09:07:11;100424.44;;;0.05;100.00
9141;BME280;46330;50.822;7.126;2022-12-11T09:09:39;100421.72;;;-0.01;100.00
9141;BME280;46330;50.822;7.126;2022-12-11T09:12:06;100420.91;;;0.00;100.00
9141;BME280;46330;50.822;7.126;2022-12-11T09:14:35;100415.94;;;0.11;100.00
9141;BME280;46330;50.822;7.126;2022-12-11T09:17:03;100429.63;;;0.08;100.00
9141;BME280;46330;50.822;7.126;2022-12-11T09:19:32;100426.94;;;0.02;100.00
9141;BME280;46330;50.822;7.126;2022-12-11T09:22:00;100426.00;;;-0.02;100.00
9141;BME280;46330;50.822;7.126;2022-12-11T09:24:29;100419.00;;;-0.10;100.00
9141;BME280;46330;50.822;7.126;2022-12-11T09:26:57;100411.28;;;-0.09;100.00
9141;BME280;46330;50.822;7.126;2022-12-11T09:29:25;100419.97;;;-0.04;100.00
9141;BME280;46330;50.822;7.126;2022-12-11T09:31:53;100422.50;;;-0.05;100.00
9141;BME280;46330;50.822;7.126;2022-12-11T09:34:21;100420.88;;;-0.02;100.00
9141;BME280;46330;50.822;7.126;2022-12-11T09:36:55;100415.78;;;0.00;100.00
9141;BME280;46330;50.822;7.126;2022-12-11T09:39:23;100422.75;;;0.07;100.00
9141;BME280;46330;50.822;7.126;2022-12-11T09:41:58;100423.66;;;0.09;100.00
9141;BME280;46330;50.822;7.126;2022-12-11T09:44:33;100423.78;;;0.15;100.00
9141;BME280;46330;50.822;7.126;2022-12-11T09:47:16;100431.38;;;0.09;100.00
9141;BME280;46330;50.822;7.126;2022-12-11T09:49:47;100427.97;;;0.12;100.00
9141;BME280;46330;50.822;7.126;2022-12-11T09:52:18;100425.59;;;0.21;100.00
9141;BME280;46330;50.822;7.126;2022-12-11T09:54:49;100423.00;;;0.21;100.00
9141;BME280;46330;50.822;7.126;2022-12-11T09:57:28;100419.84;;;0.34;100.00
9141;BME280;46330;50.822;7.126;2022-12-11T10:00:05;100419.84;;;0.35;100.00
9141;BME280;46330;50.822;7.126;2022-12-11T10:02:46;100416.56;;;0.42;100.00
9141;BME280;46330;50.822;7.126;2022-12-11T10:05:26;100422.56;;;0.43;100.00
9141;BME280;46330;50.822;7.126;2022-12-11T10:07:59;100416.66;;;0.48;100.00
9141;BME280;46330;50.822;7.126;2022-12-11T10:10:36;100410.63;;;0.48;100.00
9141;BME280;46330;50.822;7.126;2022-12-11T10:13:16;100406.31;;;0.47;100.00
9141;BME280;46330;50.822;7.126;2022-12-11T10:15:53;100403.13;;;0.60;100.00
9141;BME280;46330;50.822;7.126;2022-12-11T10:18:26;100394.69;;;0.69;100.00
9141;BME280;46330;50.822;7.126;2022-12-11T10:20:54;100409.28;;;0.68;100.00
9141;BME280;46330;50.822;7.126;2022-12-11T10:23:28;100390.34;;;0.66;99.38
9141;BME280;46330;50.822;7.126;2022-12-11T10:26:05;100392.69;;;0.51;99.72
9141;BME280;46330;50.822;7.126;2022-12-11T10:28:35;100392.63;;;0.48;99.97
9141;BME280;46330;50.822;7.126;2022-12-11T10:31:10;100392.56;;;0.43;100.00
9141;BME280;46330;50.822;7.126;2022-12-11T10:33:51;100379.84;;;0.52;100.00
9141;BME280;46330;50.822;7.126;2022-12-11T10:36:26;100390.16;;;0.52;99.95
9141;BME280;46330;50.822;7.126;2022-12-11T10:38:54;100384.97;;;0.51;99.46
9141;BME280;46330;50.822;7.126;2022-12-11T10:41:24;100380.66;;;0.50;99.46
9141;BME280;46330;50.822;7.126;2022-12-11T10:43:59;100369.28;;;0.36;98.50
9141;BME280;46330;50.822;7.126;2022-12-11T10:46:28;100372.00;;;0.43;99.25
9141;BME280;46330;50.822;7.126;2022-12-11T10:48:59;100371.28;;;0.53;98.25
9141;BME280;46330;50.822;7.126;2022-12-11T10:51:34;100367.16;;;0.63;97.95
9141;BME280;46330;50.822;7.126;2022-12-11T10:54:05;100372.25;;;0.59;98.00
9141;BME280;46330;50.822;7.126;2022-12-11T10:56:35;100366.19;;;0.57;99.35
9141;BME280;46330;50.822;7.126;2022-12-11T10:59:05;100364.38;;;0.51;98.08
9141;BME280;46330;50.822;7.126;2022-12-11T11:01:33;100371.47;;;0.64;98.80
9141;BME280;46330;50.822;7.126;2022-12-11T11:04:04;100357.53;;;0.53;98.99
9141;BME280;46330;50.822;7.126;2022-12-11T11:06:33;100364.38;;;0.49;98.58
9141;BME280;46330;50.822;7.126;2022-12-11T11:09:02;100364.41;;;0.52;98.56
9141;BME280;46330;50.822;7.126;2022-12-11T11:11:31;100355.94;;;0.58;99.35
9141;BME280;46330;50.822;7.126;2022-12-11T11:14:09;100359.34;;;0.57;98.60
9141;BME280;46330;50.822;7.126;2022-12-11T11:16:39;100361.03;;;0.57;98.20
9141;BME280;46330;50.822;7.126;2022-12-11T11:19:17;100351.66;;;0.60;97.39
9141;BME280;46330;50.822;7.126;2022-12-11T11:21:50;100353.50;;;0.67;97.65
9141;BME280;46330;50.822;7.126;2022-12-11T11:24:37;100356.13;;;0.70;97.11
9141;BME280;46330;50.822;7.126;2022-12-11T11:27:12;100349.41;;;0.81;96.76
9141;BME280;46330;50.822;7.126;2022-12-11T11:29:43;100346.13;;;0.90;95.65
9141;BME280;46330;50.822;7.126;2022-12-11T11:32:21;100337.50;;;0.88;95.33
9141;BME280;46330;50.822;7.126;2022-12-11T11:34:50;100334.84;;;0.82;95.02
9141;BME280;46330;50.822;7.126;2022-12-11T11:37:24;100333.22;;;0.87;95.23
9141;BME280;46330;50.822;7.126;2022-12-11T11:39:56;100333.56;;;1.13;95.44
9141;BME280;46330;50.822;7.126;2022-12-11T11:42:37;100329.47;;;1.28;95.78
9141;BME280;46330;50.822;7.126;2022-12-11T11:45:13;100319.41;;;1.46;95.04
9141;BME280;46330;50.822;7.126;2022-12-11T11:47:51;100317.63;;;1.39;92.39
9141;BME280;46330;50.822;7.126;2022-12-11T11:50:23;100320.22;;;1.42;92.92
9141;BME280;46330;50.822;7.126;2022-12-11T11:52:57;100314.09;;;1.33;92.46
9141;BME280;46330;50.822;7.126;2022-12-11T11:55:37;100319.19;;;1.28;92.76
9141;BME280;46330;50.822;7.126;2022-12-11T11:58:12;100316.84;;;1.48;93.30
9141;BME280;46330;50.822;7.126;2022-12-11T12:00:43;100305.59;;;1.41;93.01
9141;BME280;46330;50.822;7.126;2022-12-11T12:03:13;100312.50;;;1.44;91.51
9141;BME280;46330;50.822;7.126;2022-12-11T12:05:48;100313.88;;;1.15;90.83
9141;BME280;46330;50.822;7.126;2022-12-11T12:08:29;100320.69;;;1.13;91.40
9141;BME280;46330;50.822;7.126;2022-12-11T12:11:03;100313.88;;;1.16;92.85
9141;BME280;46330;50.822;7.126;2022-12-11T12:13:42;100322.31;;;1.06;91.42
9141;BME280;46330;50.822;7.126;2022-12-11T12:16:23;100320.59;;;1.05;91.86
9141;BME280;46330;50.822;7.126;2022-12-11T12:19:25;100329.06;;;0.98;93.20
9141;BME280;46330;50.822;7.126;2022-12-11T12:22:04;100326.66;;;1.10;91.80
9141;BME280;46330;50.822;7.126;2022-12-11T12:24:42;100328.31;;;1.05;92.03
9141;BME280;46330;50.822;7.126;2022-12-11T12:27:18;100325.75;;;1.06;91.80
9141;BME280;46330;50.822;7.126;2022-12-11T12:30:09;100327.50;;;1.09;92.06
9141;BME280;46330;50.822;7.126;2022-12-11T12:32:58;100330.88;;;1.02;91.60
9141;BME280;46330;50.822;7.126;2022-12-11T12:35:33;100320.44;;;0.93;90.68
9141;BME280;46330;50.822;7.126;2022-12-11T12:38:07;100318.03;;;1.05;92.71
9141;BME280;46330;50.822;7.126;2022-12-11T12:40:39;100318.94;;;1.08;91.33
9141;BME280;46330;50.822;7.126;2022-12-11T12:43:31;100314.75;;;1.15;92.38
9141;BME280;46330;50.822;7.126;2022-12-11T12:46:12;100297.53;;;1.14;91.83
9141;BME280;46330;50.822;7.126;2022-12-11T12:48:56;100307.81;;;1.11;92.22
9141;BME280;46330;50.822;7.126;2022-12-11T12:51:25;100306.09;;;1.12;91.13
9141;BME280;46330;50.822;7.126;2022-12-11T12:54:06;100304.19;;;0.98;93.29
9141;BME280;46330;50.822;7.126;2022-12-11T12:56:38;100304.25;;;1.03;93.84
9141;BME280;46330;50.822;7.126;2022-12-11T12:59:19;100311.94;;;1.00;92.26
9141;BME280;46330;50.822;7.126;2022-12-11T13:01:49;100295.66;;;1.01;92.41
9141;BME280;46330;50.822;7.126;2022-12-11T13:04:35;100295.69;;;1.04;92.44
9141;BME280;46330;50.822;7.126;2022-12-11T13:07:26;100300.72;;;0.95;92.16
9141;BME280;46330;50.822;7.126;2022-12-11T13:09:59;100286.97;;;0.94;91.88
9141;BME280;46330;50.822;7.126;2022-12-11T13:12:39;100292.25;;;1.03;92.83
9141;BME280;46330;50.822;7.126;2022-12-11T13:15:29;100300.88;;;1.05;93.14
9141;BME280;46330;50.822;7.126;2022-12-11T13:17:58;100293.22;;;1.12;91.87